Time,TemperatureF,DewpointF,PressureIn,WindDirection,WindDirectionDegrees,WindSpeedMPH,WindSpeedGustMPH,Humidity,HourlyPrecipIn,Conditions,Clouds,dailyrainin,SoftwareType,DateUTC
2013-04-12 00:03:00,41.5,30.2,30.15,SE,134,0.0,1.0,64,0.00,,,0.00,Wunderground v.1.15,2013-04-12 07:03:00,
2013-04-12 00:09:00,41.0,30.1,30.15,SE,134,0.0,1.0,65,0.00,,,0.00,Wunderground v.1.15,2013-04-12 07:09:00,
2013-04-12 00:15:00,40.8,30.3,30.15,SE,134,0.0,1.0,66,0.00,,,0.00,Wunderground v.1.15,2013-04-12 07:15:00,
2013-04-12 00:20:00,40.9,30.8,30.15,SE,134,3.0,3.0,67,0.00,,,0.00,Wunderground v.1.15,2013-04-12 07:20:00,
2013-04-12 00:26:00,40.8,30.7,30.15,SE,134,4.0,5.0,67,0.00,,,0.00,Wunderground v.1.15,2013-04-12 07:26:00,
2013-04-12 00:31:00,40.8,31.1,30.16,SE,134,3.0,3.0,68,0.00,,,0.00,Wunderground v.1.15,2013-04-12 07:31:00,
2013-04-12 00:37:00,40.5,31.1,30.16,SE,134,4.0,5.0,69,0.00,,,0.00,Wunderground v.1.15,2013-04-12 07:37:00,
2013-04-12 00:42:00,40.0,31.0,30.16,SSE,168,6.0,6.0,70,0.00,,,0.00,Wunderground v.1.15,2013-04-12 07:42:00,
2013-04-12 00:48:00,39.7,31.1,30.16,SSE,168,4.0,6.0,71,0.00,,,0.00,Wunderground v.1.15,2013-04-12 07:48:00,
2013-04-12 00:54:00,39.6,31.3,30.16,SSE,168,4.0,5.0,72,0.00,,,0.00,Wunderground v.1.15,2013-04-12 07:54:00,
2013-04-12 00:59:00,39.5,31.2,30.16,SSE,168,3.0,3.0,72,0.00,,,0.00,Wunderground v.1.15,2013-04-12 07:59:00,
2013-04-12 01:05:00,39.3,31.0,30.17,SSE,168,2.0,4.0,72,0.00,,,0.00,Wunderground v.1.15,2013-04-12 08:05:00,
2013-04-12 01:11:00,39.1,31.2,30.17,SSE,168,2.0,3.0,73,0.00,,,0.00,Wunderground v.1.15,2013-04-12 08:11:00,
2013-04-12 01:16:00,38.9,31.3,30.17,SSE,168,0.0,3.0,74,0.00,,,0.00,Wunderground v.1.15,2013-04-12 08:16:00,
2013-04-12 01:22:00,38.7,31.1,30.17,SSE,168,2.0,2.0,74,0.00,,,0.00,Wunderground v.1.15,2013-04-12 08:22:00,
2013-04-12 01:28:00,38.8,31.2,30.16,SSE,168,3.0,3.0,74,0.00,,,0.00,Wunderground v.1.15,2013-04-12 08:28:00,
2013-04-12 01:34:00,39.1,31.5,30.16,SSE,168,1.0,3.0,74,0.00,,,0.00,Wunderground v.1.15,2013-04-12 08:34:00,
2013-04-12 01:39:00,39.3,31.7,30.16,SSE,168,4.0,4.0,74,0.00,,,0.00,Wunderground v.1.15,2013-04-12 08:39:00,
2013-04-12 01:45:00,39.2,31.6,30.16,SSE,168,3.0,5.0,74,0.00,,,0.00,Wunderground v.1.15,2013-04-12 08:45:00,
2013-04-12 01:51:00,39.0,31.4,30.16,SSE,168,2.0,4.0,74,0.00,,,0.00,Wunderground v.1.15,2013-04-12 08:51:00,
2013-04-12 01:57:00,39.0,31.4,30.16,SSE,168,0.0,4.0,74,0.00,,,0.00,Wunderground v.1.15,2013-04-12 08:57:00,
2013-04-12 02:02:00,39.0,31.4,30.15,SSE,168,0.0,0.0,74,0.00,,,0.00,Wunderground v.1.15,2013-04-12 09:02:00,
2013-04-12 02:07:00,39.0,31.4,30.15,SSE,168,2.0,2.0,74,0.00,,,0.00,Wunderground v.1.15,2013-04-12 09:07:00,
2013-04-12 02:12:00,38.9,31.6,30.15,SSE,168,0.0,3.0,75,0.00,,,0.00,Wunderground v.1.15,2013-04-12 09:12:00,
2013-04-12 02:17:00,38.7,31.1,30.15,SSE,168,0.0,3.0,74,0.00,,,0.00,Wunderground v.1.15,2013-04-12 09:17:00,
2013-04-12 02:22:00,38.6,31.4,30.15,SSE,168,2.0,3.0,75,0.00,,,0.00,Wunderground v.1.15,2013-04-12 09:22:00,
2013-04-12 02:27:00,38.6,31.4,30.14,SSE,168,0.0,3.0,75,0.00,,,0.00,Wunderground v.1.15,2013-04-12 09:27:00,
2013-04-12 02:32:00,38.6,31.4,30.14,SSE,168,0.0,1.0,75,0.00,,,0.00,Wunderground v.1.15,2013-04-12 09:32:00,
2013-04-12 02:37:00,38.4,31.5,30.14,SSE,168,4.0,5.0,76,0.00,,,0.00,Wunderground v.1.15,2013-04-12 09:37:00,
2013-04-12 02:42:00,37.8,31.2,30.14,SSE,168,3.0,3.0,77,0.00,,,0.00,Wunderground v.1.15,2013-04-12 09:42:00,
2013-04-12 02:47:00,37.1,30.9,30.14,SSE,168,2.0,6.0,78,0.00,,,0.00,Wunderground v.1.15,2013-04-12 09:47:00,
2013-04-12 02:52:00,36.6,30.7,30.14,SSE,168,0.0,3.0,79,0.00,,,0.00,Wunderground v.1.15,2013-04-12 09:52:00,
2013-04-12 02:57:00,36.1,30.8,30.14,SSE,168,0.0,3.0,81,0.00,,,0.00,Wunderground v.1.15,2013-04-12 09:57:00,
2013-04-12 03:02:00,35.9,30.9,30.15,SSE,168,1.0,4.0,82,0.00,,,0.00,Wunderground v.1.15,2013-04-12 10:02:00,
2013-04-12 03:07:00,35.6,30.6,30.15,SSE,168,2.0,4.0,82,0.00,,,0.00,Wunderground v.1.15,2013-04-12 10:07:00,
2013-04-12 03:13:00,35.5,30.5,30.15,SSE,168,0.0,2.0,82,0.00,,,0.00,Wunderground v.1.15,2013-04-12 10:13:00,
2013-04-12 03:17:00,35.5,30.8,30.14,SSE,168,2.0,3.0,83,0.00,,,0.00,Wunderground v.1.15,2013-04-12 10:17:00,
2013-04-12 03:23:00,35.4,30.8,30.14,SSE,168,1.0,4.0,83,0.00,,,0.00,Wunderground v.1.15,2013-04-12 10:23:00,
2013-04-12 03:28:00,35.4,30.8,30.14,SSE,168,0.0,4.0,83,0.00,,,0.00,Wunderground v.1.15,2013-04-12 10:28:00,
2013-04-12 03:33:00,35.3,30.7,30.14,SSE,168,3.0,3.0,83,0.00,,,0.00,Wunderground v.1.15,2013-04-12 10:33:00,
2013-04-12 03:38:00,35.4,30.8,30.14,SSE,168,0.0,3.0,83,0.00,,,0.00,Wunderground v.1.15,2013-04-12 10:38:00,
2013-04-12 03:43:00,35.4,30.8,30.14,SSE,168,4.0,5.0,83,0.00,,,0.00,Wunderground v.1.15,2013-04-12 10:43:00,
2013-04-12 03:48:00,35.4,30.8,30.14,SSE,168,3.0,5.0,83,0.00,,,0.00,Wunderground v.1.15,2013-04-12 10:48:00,
2013-04-12 03:53:00,35.3,30.7,30.14,SSE,168,2.0,4.0,83,0.00,,,0.00,Wunderground v.1.15,2013-04-12 10:53:00,
2013-04-12 03:59:00,35.2,30.6,30.14,SSE,168,3.0,5.0,83,0.00,,,0.00,Wunderground v.1.15,2013-04-12 10:59:00,
2013-04-12 04:04:00,35.1,30.8,30.14,SSE,168,5.0,5.0,84,0.00,,,0.00,Wunderground v.1.15,2013-04-12 11:04:00,
2013-04-12 04:09:00,35.0,30.7,30.14,SSE,168,0.0,5.0,84,0.00,,,0.00,Wunderground v.1.15,2013-04-12 11:09:00,
2013-04-12 04:14:00,35.0,30.7,30.14,SSE,168,0.0,3.0,84,0.00,,,0.00,Wunderground v.1.15,2013-04-12 11:14:00,
2013-04-12 04:19:00,35.0,30.7,30.14,SSE,168,0.0,3.0,84,0.00,,,0.00,Wunderground v.1.15,2013-04-12 11:19:00,
2013-04-12 04:24:00,35.0,30.7,30.14,SSE,168,2.0,3.0,84,0.00,,,0.00,Wunderground v.1.15,2013-04-12 11:24:00,
2013-04-12 04:29:00,35.2,30.9,30.14,SSE,168,0.0,3.0,84,0.00,,,0.00,Wunderground v.1.15,2013-04-12 11:29:00,
2013-04-12 04:34:00,35.1,30.8,30.14,SSE,168,0.0,1.0,84,0.00,,,0.00,Wunderground v.1.15,2013-04-12 11:34:00,
2013-04-12 04:39:00,35.0,30.7,30.14,SSE,168,1.0,2.0,84,0.00,,,0.00,Wunderground v.1.15,2013-04-12 11:39:00,
2013-04-12 04:44:00,34.7,30.7,30.14,SSE,168,0.0,2.0,85,0.00,,,0.00,Wunderground v.1.15,2013-04-12 11:44:00,
2013-04-12 04:49:00,34.6,30.6,30.14,SSE,168,0.0,0.0,85,0.00,,,0.00,Wunderground v.1.15,2013-04-12 11:49:00,
2013-04-12 04:54:00,34.6,30.6,30.14,SSE,168,2.0,2.0,85,0.00,,,0.00,Wunderground v.1.15,2013-04-12 11:54:00,
2013-04-12 05:00:00,34.6,30.6,30.14,SSE,168,4.0,4.0,85,0.00,,,0.00,Wunderground v.1.15,2013-04-12 12:00:00,
2013-04-12 05:05:00,34.7,30.7,30.14,SSE,168,0.0,4.0,85,0.00,,,0.00,Wunderground v.1.15,2013-04-12 12:05:00,
2013-04-12 05:10:00,34.6,30.6,30.15,SSE,168,0.0,1.0,85,0.00,,,0.00,Wunderground v.1.15,2013-04-12 12:10:00,
2013-04-12 05:15:00,34.5,30.5,30.15,SSE,168,0.0,1.0,85,0.00,,,0.00,Wunderground v.1.15,2013-04-12 12:15:00,
2013-04-12 05:20:00,34.4,30.6,30.15,SSE,168,0.0,0.0,86,0.00,,,0.00,Wunderground v.1.15,2013-04-12 12:20:00,
2013-04-12 05:25:00,34.3,30.5,30.15,SSE,168,0.0,1.0,86,0.00,,,0.00,Wunderground v.1.15,2013-04-12 12:25:00,
2013-04-12 05:30:00,34.3,30.5,30.15,SSE,168,0.0,0.0,86,0.00,,,0.00,Wunderground v.1.15,2013-04-12 12:30:00,
2013-04-12 05:35:00,34.2,30.4,30.15,SSE,168,0.0,0.0,86,0.00,,,0.00,Wunderground v.1.15,2013-04-12 12:35:00,
2013-04-12 05:40:00,34.0,30.3,30.15,SSE,168,0.0,0.0,86,0.00,,,0.00,Wunderground v.1.15,2013-04-12 12:40:00,
2013-04-12 05:45:00,34.0,30.3,30.15,SSE,168,0.0,1.0,86,0.00,,,0.00,Wunderground v.1.15,2013-04-12 12:45:00,
2013-04-12 05:50:00,34.1,30.4,30.15,SSE,168,0.0,0.0,86,0.00,,,0.00,Wunderground v.1.15,2013-04-12 12:50:00,
2013-04-12 05:55:00,34.1,30.4,30.15,SSE,168,0.0,0.0,86,0.00,,,0.00,Wunderground v.1.15,2013-04-12 12:55:00,
2013-04-12 06:00:00,34.1,30.4,30.15,SSE,168,0.0,0.0,86,0.00,,,0.00,Wunderground v.1.15,2013-04-12 13:00:00,
2013-04-12 06:05:00,34.3,30.5,30.15,SSE,168,0.0,0.0,86,0.00,,,0.00,Wunderground v.1.15,2013-04-12 13:05:00,
2013-04-12 06:10:00,34.4,30.6,30.15,SSE,168,0.0,0.0,86,0.00,,,0.00,Wunderground v.1.15,2013-04-12 13:10:00,
2013-04-12 06:15:00,34.5,30.7,30.15,SSE,168,0.0,0.0,86,0.00,,,0.00,Wunderground v.1.15,2013-04-12 13:15:00,
2013-04-12 06:20:00,34.6,30.8,30.15,SSE,168,0.0,0.0,86,0.00,,,0.00,Wunderground v.1.15,2013-04-12 13:20:00,
2013-04-12 06:26:00,34.8,31.0,30.15,SSE,168,1.0,2.0,86,0.00,,,0.00,Wunderground v.1.15,2013-04-12 13:26:00,
2013-04-12 06:31:00,35.0,30.9,30.14,SSE,168,1.0,2.0,85,0.00,,,0.00,Wunderground v.1.15,2013-04-12 13:31:00,
2013-04-12 06:36:00,35.1,31.0,30.15,SSE,168,0.0,2.0,85,0.00,,,0.00,Wunderground v.1.15,2013-04-12 13:36:00,
2013-04-12 06:41:00,35.3,31.2,30.15,SSE,168,0.0,1.0,85,0.00,,,0.00,Wunderground v.1.15,2013-04-12 13:41:00,
2013-04-12 06:46:00,35.5,31.1,30.15,SSE,168,0.0,2.0,84,0.00,,,0.00,Wunderground v.1.15,2013-04-12 13:46:00,
2013-04-12 06:52:00,35.8,31.1,30.15,SSE,168,0.0,1.0,83,0.00,,,0.00,Wunderground v.1.15,2013-04-12 13:52:00,
2013-04-12 06:57:00,36.1,31.4,30.15,SSE,168,0.0,1.0,83,0.00,,,0.00,Wunderground v.1.15,2013-04-12 13:57:00,
2013-04-12 07:02:00,36.3,31.6,30.15,SSE,168,0.0,1.0,83,0.00,,,0.00,Wunderground v.1.15,2013-04-12 14:02:00,
2013-04-12 07:07:00,36.0,31.6,30.15,SSE,168,0.0,3.0,84,0.00,,,0.00,Wunderground v.1.15,2013-04-12 14:07:00,
2013-04-12 07:12:00,35.7,31.6,30.15,SSE,168,1.0,1.0,85,0.00,,,0.00,Wunderground v.1.15,2013-04-12 14:12:00,
2013-04-12 07:17:00,35.4,31.9,30.15,SSE,168,1.0,2.0,87,0.00,,,0.00,Wunderground v.1.15,2013-04-12 14:17:00,
2013-04-12 07:22:00,35.4,31.9,30.15,SSE,152,0.0,3.0,87,0.00,,,0.00,Wunderground v.1.15,2013-04-12 14:22:00,
2013-04-12 07:27:00,35.7,32.2,30.15,SSE,152,0.0,3.0,87,0.00,,,0.00,Wunderground v.1.15,2013-04-12 14:27:00,
2013-04-12 07:32:00,35.7,32.5,30.15,SSE,152,0.0,2.0,88,0.00,,,0.00,Wunderground v.1.15,2013-04-12 14:32:00,
2013-04-12 07:38:00,36.0,32.8,30.15,SSE,152,1.0,3.0,88,0.00,,,0.00,Wunderground v.1.15,2013-04-12 14:38:00,
2013-04-12 07:43:00,36.2,32.7,30.14,SSE,152,2.0,4.0,87,0.00,,,0.00,Wunderground v.1.15,2013-04-12 14:43:00,
2013-04-12 07:49:00,36.4,32.6,30.14,SSE,152,1.0,4.0,86,0.00,,,0.00,Wunderground v.1.15,2013-04-12 14:49:00,
2013-04-12 07:54:00,36.8,32.7,30.14,SSE,152,2.0,5.0,85,0.00,,,0.00,Wunderground v.1.15,2013-04-12 14:54:00,
2013-04-12 07:59:00,36.9,32.5,30.14,SSE,152,2.0,6.0,84,0.00,,,0.00,Wunderground v.1.15,2013-04-12 14:59:00,
2013-04-12 08:04:00,37.0,32.0,30.13,SSE,153,3.0,7.0,82,0.00,,,0.00,Wunderground v.1.15,2013-04-12 15:04:00,
2013-04-12 08:09:00,37.0,32.0,30.13,SSE,152,4.0,7.0,82,0.00,,,0.00,Wunderground v.1.15,2013-04-12 15:09:00,
2013-04-12 08:14:00,36.9,31.9,30.13,SSE,152,4.0,5.0,82,0.00,,,0.00,Wunderground v.1.15,2013-04-12 15:14:00,
2013-04-12 08:19:00,37.0,32.3,30.13,SSE,152,3.0,5.0,83,0.00,,,0.00,Wunderground v.1.15,2013-04-12 15:19:00,
2013-04-12 08:24:00,37.3,32.6,30.13,SE,138,7.0,9.0,83,0.00,,,0.00,Wunderground v.1.15,2013-04-12 15:24:00,
2013-04-12 08:29:00,37.4,32.1,30.13,SE,144,6.0,9.0,81,0.00,,,0.00,Wunderground v.1.15,2013-04-12 15:29:00,
2013-04-12 08:34:00,37.5,32.2,30.13,SSE,148,4.0,9.0,81,0.00,,,0.00,Wunderground v.1.15,2013-04-12 15:34:00,
2013-04-12 08:39:00,38.1,32.8,30.13,SE,140,4.0,9.0,81,0.00,,,0.00,Wunderground v.1.15,2013-04-12 15:39:00,
2013-04-12 08:44:00,38.3,32.0,30.13,SSE,149,6.0,11.0,78,0.00,,,0.00,Wunderground v.1.15,2013-04-12 15:44:00,
2013-04-12 08:49:00,38.3,31.7,30.13,SSE,168,5.0,6.0,77,0.00,,,0.00,Wunderground v.1.15,2013-04-12 15:49:00,
2013-04-12 08:55:00,38.6,31.7,30.13,SSE,162,8.0,9.0,76,0.00,,,0.00,Wunderground v.1.15,2013-04-12 15:55:00,
2013-04-12 09:00:00,38.5,31.6,30.12,SE,146,4.0,7.0,76,0.00,,,0.00,Wunderground v.1.15,2013-04-12 16:00:00,
2013-04-12 09:05:00,38.7,31.5,30.12,South,175,9.0,10.0,75,0.00,,,0.00,Wunderground v.1.15,2013-04-12 16:05:00,
2013-04-12 09:10:00,38.8,31.6,30.12,South,184,9.0,9.0,75,0.00,,,0.00,Wunderground v.1.15,2013-04-12 16:10:00,
2013-04-12 09:15:00,38.9,31.3,30.12,South,171,7.0,11.0,74,0.00,,,0.00,Wunderground v.1.15,2013-04-12 16:15:00,
2013-04-12 09:20:00,39.2,31.6,30.12,ESE,118,5.0,7.0,74,0.00,,,0.00,Wunderground v.1.15,2013-04-12 16:20:00,
2013-04-12 09:25:00,39.6,31.3,30.11,SSE,158,5.0,9.0,72,0.00,,,0.00,Wunderground v.1.15,2013-04-12 16:25:00,
2013-04-12 09:30:00,40.2,31.2,30.11,SE,146,4.0,8.0,70,0.00,,,0.00,Wunderground v.1.15,2013-04-12 16:30:00,
2013-04-12 09:35:00,40.6,30.5,30.11,South,169,11.0,12.0,67,0.00,,,0.00,Wunderground v.1.15,2013-04-12 16:35:00,
2013-04-12 09:40:00,40.9,30.4,30.11,South,182,7.0,12.0,66,0.00,,,0.00,Wunderground v.1.15,2013-04-12 16:40:00,
2013-04-12 09:45:00,41.0,30.5,30.10,SSE,165,8.0,12.0,66,0.00,,,0.00,Wunderground v.1.15,2013-04-12 16:45:00,
2013-04-12 09:50:00,41.3,30.4,30.10,SSE,147,10.0,10.0,65,0.00,,,0.00,Wunderground v.1.15,2013-04-12 16:50:00,
2013-04-12 09:55:00,41.6,30.3,30.10,SE,140,1.0,11.0,64,0.00,,,0.00,Wunderground v.1.15,2013-04-12 16:55:00,
2013-04-12 10:00:00,41.9,30.2,30.09,SE,130,7.0,11.0,63,0.00,,,0.00,Wunderground v.1.15,2013-04-12 17:00:00,
2013-04-12 10:05:00,42.3,30.6,30.09,South,173,3.0,11.0,63,0.00,,,0.00,Wunderground v.1.15,2013-04-12 17:05:00,
2013-04-12 10:10:00,42.8,30.7,30.08,SE,134,5.0,9.0,62,0.00,,,0.00,Wunderground v.1.15,2013-04-12 17:10:00,
2013-04-12 10:16:00,43.0,30.5,30.08,SSE,150,10.0,11.0,61,0.00,,,0.00,Wunderground v.1.15,2013-04-12 17:16:00,
2013-04-12 10:21:00,43.4,31.6,30.08,SSE,159,3.0,10.0,63,0.00,,,0.00,Wunderground v.1.15,2013-04-12 17:21:00,
2013-04-12 10:26:00,43.8,31.6,30.07,SSE,161,7.0,11.0,62,0.00,,,0.00,Wunderground v.1.15,2013-04-12 17:26:00,
2013-04-12 10:31:00,43.9,30.1,30.07,SSE,161,5.0,9.0,58,0.00,,,0.00,Wunderground v.1.15,2013-04-12 17:31:00,
2013-04-12 10:37:00,44.3,31.7,30.07,South,190,8.0,12.0,61,0.00,,,0.00,Wunderground v.1.15,2013-04-12 17:37:00,
2013-04-12 10:42:00,44.6,31.1,30.07,SE,133,12.0,12.0,59,0.00,,,0.00,Wunderground v.1.15,2013-04-12 17:42:00,
2013-04-12 10:47:00,44.4,31.4,30.07,SSE,162,9.0,12.0,60,0.00,,,0.00,Wunderground v.1.15,2013-04-12 17:47:00,
2013-04-12 10:52:00,44.8,30.9,30.07,South,183,7.0,10.0,58,0.00,,,0.00,Wunderground v.1.15,2013-04-12 17:52:00,
2013-04-12 10:57:00,44.9,31.0,30.07,South,174,9.0,10.0,58,0.00,,,0.00,Wunderground v.1.15,2013-04-12 17:57:00,
2013-04-12 11:03:00,45.2,32.5,30.07,ESE,123,11.0,11.0,61,0.00,,,0.00,Wunderground v.1.15,2013-04-12 18:03:00,
2013-04-12 11:09:00,45.4,32.7,30.07,SSW,200,5.0,11.0,61,0.00,,,0.00,Wunderground v.1.15,2013-04-12 18:09:00,
2013-04-12 11:14:00,45.6,33.3,30.06,SSE,153,9.0,10.0,62,0.00,,,0.00,Wunderground v.1.15,2013-04-12 18:14:00,
2013-04-12 11:20:00,45.6,33.7,30.06,SSE,165,6.0,7.0,63,0.00,,,0.00,Wunderground v.1.15,2013-04-12 18:20:00,
2013-04-12 11:25:00,46.2,34.3,30.05,South,176,8.0,12.0,63,0.00,,,0.00,Wunderground v.1.15,2013-04-12 18:25:00,
2013-04-12 12:26:00,48.7,34.6,30.00,SE,140,10.0,13.0,58,0.00,,,0.00,Wunderground v.1.15,2013-04-12 19:26:00,
2013-04-12 12:27:00,48.6,34.5,30.00,SSE,165,11.0,13.0,58,0.00,,,0.00,Wunderground v.1.15,2013-04-12 19:27:00,
2013-04-12 12:32:00,48.8,34.2,30.00,SSE,162,15.0,16.0,57,0.00,,,0.00,Wunderground v.1.15,2013-04-12 19:32:00,
2013-04-12 12:37:00,48.7,34.6,29.99,South,170,11.0,17.0,58,0.00,,,0.00,Wunderground v.1.15,2013-04-12 19:37:00,
2013-04-12 12:42:00,48.7,33.7,29.99,South,171,4.0,12.0,56,0.00,,,0.00,Wunderground v.1.15,2013-04-12 19:42:00,
2013-04-12 12:47:00,49.1,34.1,29.98,South,178,10.0,13.0,56,0.00,,,0.00,Wunderground v.1.15,2013-04-12 19:47:00,
2013-04-12 12:52:00,49.4,33.4,29.98,South,189,13.0,14.0,54,0.00,,,0.00,Wunderground v.1.15,2013-04-12 19:52:00,
2013-04-12 12:57:00,49.4,32.0,29.97,SSW,200,12.0,16.0,51,0.00,,,0.00,Wunderground v.1.15,2013-04-12 19:57:00,
2013-04-12 13:02:00,49.9,33.9,29.97,South,182,12.0,19.0,54,0.00,,,0.00,Wunderground v.1.15,2013-04-12 20:02:00,
2013-04-12 13:07:00,50.8,33.3,29.97,SSW,213,7.0,19.0,51,0.00,,,0.00,Wunderground v.1.15,2013-04-12 20:07:00,
2013-04-12 13:12:00,50.1,32.2,29.96,SSW,196,15.0,15.0,50,0.00,,,0.00,Wunderground v.1.15,2013-04-12 20:12:00,
2013-04-12 13:17:00,49.9,31.5,29.96,SSW,213,8.0,17.0,49,0.00,,,0.00,Wunderground v.1.15,2013-04-12 20:17:00,
2013-04-12 13:22:00,50.2,31.2,29.96,SSW,196,13.0,18.0,48,0.00,,,0.00,Wunderground v.1.15,2013-04-12 20:22:00,
2013-04-12 13:28:00,50.0,32.1,29.96,South,180,12.0,18.0,50,0.00,,,0.00,Wunderground v.1.15,2013-04-12 20:28:00,
2013-04-12 13:33:00,50.2,31.8,29.95,SSW,196,9.0,12.0,49,0.00,,,0.00,Wunderground v.1.15,2013-04-12 20:33:00,
2013-04-12 13:39:00,50.4,31.9,29.95,SE,144,9.0,16.0,49,0.00,,,0.00,Wunderground v.1.15,2013-04-12 20:39:00,
2013-04-12 13:44:00,50.5,32.5,29.95,SSW,197,9.0,14.0,50,0.00,,,0.00,Wunderground v.1.15,2013-04-12 20:44:00,
2013-04-12 13:49:00,50.4,31.9,29.94,SSW,207,6.0,14.0,49,0.00,,,0.00,Wunderground v.1.15,2013-04-12 20:49:00,
2013-04-12 13:54:00,50.7,30.7,29.94,SSW,202,9.0,13.0,46,0.00,,,0.00,Wunderground v.1.15,2013-04-12 20:54:00,
2013-04-12 13:59:00,50.6,30.0,29.93,SSW,213,14.0,16.0,45,0.00,,,0.00,Wunderground v.1.15,2013-04-12 20:59:00,
2013-04-12 14:04:00,50.9,30.3,29.93,SW,225,9.0,16.0,45,0.00,,,0.00,Wunderground v.1.15,2013-04-12 21:04:00,
2013-04-12 14:09:00,51.0,31.5,29.93,SW,223,13.0,16.0,47,0.00,,,0.00,Wunderground v.1.15,2013-04-12 21:09:00,
2013-04-12 14:14:00,51.4,31.3,29.93,SSW,211,12.0,14.0,46,0.00,,,0.00,Wunderground v.1.15,2013-04-12 21:14:00,
2013-04-12 14:19:00,51.7,31.0,29.92,SSW,211,10.0,14.0,45,0.00,,,0.00,Wunderground v.1.15,2013-04-12 21:19:00,
2013-04-12 14:24:00,51.5,31.9,29.92,SW,219,11.0,15.0,47,0.00,,,0.00,Wunderground v.1.15,2013-04-12 21:24:00,
2013-04-12 14:29:00,51.5,31.4,29.92,SSW,211,13.0,17.0,46,0.00,,,0.00,Wunderground v.1.15,2013-04-12 21:29:00,
2013-04-12 14:34:00,51.6,30.4,29.91,SW,225,10.0,17.0,44,0.00,,,0.00,Wunderground v.1.15,2013-04-12 21:34:00,
2013-04-12 14:39:00,51.7,31.0,29.91,SSW,199,7.0,17.0,45,0.00,,,0.00,Wunderground v.1.15,2013-04-12 21:39:00,
2013-04-12 14:44:00,51.9,31.7,29.91,SSW,205,10.0,15.0,46,0.00,,,0.00,Wunderground v.1.15,2013-04-12 21:44:00,
2013-04-12 14:49:00,51.5,30.8,29.90,SSW,211,9.0,17.0,45,0.00,,,0.00,Wunderground v.1.15,2013-04-12 21:49:00,
2013-04-12 14:54:00,51.4,31.3,29.90,SSW,202,12.0,14.0,46,0.00,,,0.00,Wunderground v.1.15,2013-04-12 21:54:00,
2013-04-12 14:59:00,51.1,31.0,29.89,South,184,7.0,14.0,46,0.00,,,0.00,Wunderground v.1.15,2013-04-12 21:59:00,
2013-04-12 15:04:00,51.2,31.1,29.89,South,175,9.0,12.0,46,0.00,,,0.00,Wunderground v.1.15,2013-04-12 22:04:00,
2013-04-12 15:09:00,51.2,31.1,29.88,SSW,192,11.0,12.0,46,0.00,,,0.00,Wunderground v.1.15,2013-04-12 22:09:00,
2013-04-12 15:14:00,51.3,31.2,29.88,SSW,213,10.0,17.0,46,0.00,,,0.00,Wunderground v.1.15,2013-04-12 22:14:00,
2013-04-12 15:19:00,51.2,31.1,29.88,South,188,11.0,17.0,46,0.00,,,0.00,Wunderground v.1.15,2013-04-12 22:19:00,
2013-04-12 15:25:00,51.3,31.2,29.87,SW,235,11.0,14.0,46,0.00,,,0.00,Wunderground v.1.15,2013-04-12 22:25:00,
2013-04-12 15:30:00,51.2,31.6,29.87,SW,223,10.0,14.0,47,0.00,,,0.00,Wunderground v.1.15,2013-04-12 22:30:00,
2013-04-12 15:35:00,51.1,31.6,29.86,SSW,209,10.0,17.0,47,0.00,,,0.00,Wunderground v.1.15,2013-04-12 22:35:00,
2013-04-12 15:40:00,51.0,31.5,29.86,South,184,14.0,17.0,47,0.00,,,0.00,Wunderground v.1.15,2013-04-12 22:40:00,
2013-04-12 15:45:00,51.0,32.0,29.86,SSW,199,7.0,17.0,48,0.00,,,0.00,Wunderground v.1.15,2013-04-12 22:45:00,
2013-04-12 15:50:00,51.0,32.5,29.85,SW,216,8.0,10.0,49,0.00,,,0.00,Wunderground v.1.15,2013-04-12 22:50:00,
2013-04-12 15:55:00,50.9,31.4,29.85,South,179,15.0,21.0,47,0.00,,,0.00,Wunderground v.1.15,2013-04-12 22:55:00,
2013-04-12 16:00:00,50.3,28.6,29.85,SW,225,17.0,18.0,43,0.00,,,0.00,Wunderground v.1.15,2013-04-12 23:00:00,
2013-04-12 16:05:00,49.8,28.2,29.84,SSW,205,6.0,23.0,43,0.00,,,0.00,Wunderground v.1.15,2013-04-12 23:05:00,
2013-04-12 16:10:00,49.9,28.8,29.83,SSW,206,6.0,9.0,44,0.00,,,0.00,Wunderground v.1.15,2013-04-12 23:10:00,
2013-04-12 16:15:00,50.3,29.7,29.84,SW,219,5.0,12.0,45,0.00,,,0.00,Wunderground v.1.15,2013-04-12 23:15:00,
2013-04-12 16:20:00,50.3,30.3,29.83,SW,216,10.0,12.0,46,0.00,,,0.00,Wunderground v.1.15,2013-04-12 23:20:00,
2013-04-12 16:25:00,50.4,31.4,29.83,SSW,207,10.0,12.0,48,0.00,,,0.00,Wunderground v.1.15,2013-04-12 23:25:00,
2013-04-12 16:30:00,50.6,32.1,29.82,SW,219,8.0,8.0,49,0.00,,,0.00,Wunderground v.1.15,2013-04-12 23:30:00,
2013-04-12 16:35:00,50.6,31.6,29.82,SSW,198,7.0,12.0,48,0.00,,,0.00,Wunderground v.1.15,2013-04-12 23:35:00,
2013-04-12 16:40:00,50.6,31.1,29.82,SSW,202,15.0,16.0,47,0.00,,,0.00,Wunderground v.1.15,2013-04-12 23:40:00,
2013-04-12 16:45:00,50.4,30.9,29.81,WSW,240,11.0,18.0,47,0.00,,,0.00,Wunderground v.1.15,2013-04-12 23:45:00,
2013-04-12 16:50:00,50.3,31.3,29.81,SSW,210,12.0,13.0,48,0.00,,,0.00,Wunderground v.1.15,2013-04-12 23:50:00,
2013-04-12 16:55:00,50.2,31.2,29.81,SW,220,10.0,15.0,48,0.00,,,0.00,Wunderground v.1.15,2013-04-12 23:55:00,
2013-04-12 17:01:00,50.2,30.7,29.81,SSW,195,13.0,19.0,47,0.00,,,0.00,Wunderground v.1.15,2013-04-13 00:01:00,
2013-04-12 17:06:00,50.1,30.6,29.81,South,186,12.0,20.0,47,0.00,,,0.00,Wunderground v.1.15,2013-04-13 00:06:00,
2013-04-12 17:11:00,49.9,30.5,29.80,SSW,209,15.0,19.0,47,0.00,,,0.00,Wunderground v.1.15,2013-04-13 00:11:00,
2013-04-12 17:16:00,49.9,29.9,29.80,SSW,202,18.0,22.0,46,0.00,,,0.00,Wunderground v.1.15,2013-04-13 00:16:00,
2013-04-12 17:21:00,49.7,30.8,29.80,SSW,194,13.0,17.0,48,0.00,,,0.00,Wunderground v.1.15,2013-04-13 00:21:00,
2013-04-12 17:26:00,49.6,31.2,29.80,SSW,212,17.0,19.0,49,0.00,,,0.00,Wunderground v.1.15,2013-04-13 00:26:00,
2013-04-12 17:31:00,49.5,31.1,29.79,SW,219,14.0,14.0,49,0.00,,,0.00,Wunderground v.1.15,2013-04-13 00:31:00,
2013-04-12 17:36:00,49.2,28.7,29.79,WSW,239,12.0,21.0,45,0.00,,,0.00,Wunderground v.1.15,2013-04-13 00:36:00,
2013-04-12 17:41:00,49.1,30.2,29.79,SSW,205,15.0,20.0,48,0.00,,,0.00,Wunderground v.1.15,2013-04-13 00:41:00,
2013-04-12 17:46:00,48.5,28.6,29.79,SSW,194,17.0,20.0,46,0.00,,,0.00,Wunderground v.1.15,2013-04-13 00:46:00,
2013-04-12 17:52:00,48.3,29.0,29.79,SW,215,22.0,26.0,47,0.00,,,0.00,Wunderground v.1.15,2013-04-13 00:52:00,
2013-04-12 17:57:00,47.6,29.9,29.79,SW,226,18.0,27.0,50,0.00,,,0.00,Wunderground v.1.15,2013-04-13 00:57:00,
2013-04-12 18:02:00,46.5,31.2,29.79,SW,215,19.0,28.0,55,0.00,,,0.00,Wunderground v.1.15,2013-04-13 01:02:00,
2013-04-12 18:07:00,46.4,32.0,29.79,SW,220,15.0,28.0,57,0.00,,,0.00,Wunderground v.1.15,2013-04-13 01:07:00,
2013-04-12 18:12:00,46.1,32.6,29.79,SW,232,15.0,19.0,59,0.00,,,0.00,Wunderground v.1.15,2013-04-13 01:12:00,
2013-04-12 18:17:00,45.8,32.3,29.79,SW,221,8.0,19.0,59,0.00,,,0.00,Wunderground v.1.15,2013-04-13 01:17:00,
2013-04-12 18:22:00,45.7,32.6,29.79,SSW,212,23.0,24.0,60,0.00,,,0.00,Wunderground v.1.15,2013-04-13 01:22:00,
2013-04-12 18:27:00,44.9,32.7,29.79,South,191,15.0,24.0,62,0.00,,,0.00,Wunderground v.1.15,2013-04-13 01:27:00,
2013-04-12 18:32:00,44.7,32.9,29.78,SSW,205,15.0,19.0,63,0.00,,,0.00,Wunderground v.1.15,2013-04-13 01:32:00,
2013-04-12 18:37:00,44.5,33.8,29.78,SW,219,10.0,19.0,66,0.00,,,0.00,Wunderground v.1.15,2013-04-13 01:37:00,
2013-04-12 18:42:00,44.4,33.4,29.78,SW,232,23.0,25.0,65,0.00,,,0.00,Wunderground v.1.15,2013-04-13 01:42:00,
2013-04-12 18:47:00,44.2,33.9,29.78,SW,227,21.0,27.0,67,0.00,,,0.00,Wunderground v.1.15,2013-04-13 01:47:00,
2013-04-12 18:52:00,43.5,34.0,29.78,SW,218,14.0,22.0,69,0.00,,,0.00,Wunderground v.1.15,2013-04-13 01:52:00,
2013-04-12 18:57:00,42.7,35.0,29.78,SW,231,19.0,22.0,74,0.00,,,0.00,Wunderground v.1.15,2013-04-13 01:57:00,
2013-04-12 19:03:00,42.3,34.9,29.78,SSW,199,11.0,21.0,75,0.00,,,0.00,Wunderground v.1.15,2013-04-13 02:03:00,
2013-04-12 19:08:00,41.8,35.1,29.77,SW,224,18.0,25.0,77,0.00,,,0.00,Wunderground v.1.15,2013-04-13 02:08:00,
2013-04-12 19:13:00,41.5,35.5,29.77,SW,219,15.0,19.0,79,0.00,,,0.00,Wunderground v.1.15,2013-04-13 02:13:00,
2013-04-12 19:19:00,41.2,35.5,29.77,SSW,202,12.0,19.0,80,0.00,,,0.00,Wunderground v.1.15,2013-04-13 02:19:00,
2013-04-12 19:24:00,40.9,35.2,29.77,SW,225,14.0,22.0,80,0.00,,,0.00,Wunderground v.1.15,2013-04-13 02:24:00,
2013-04-12 19:29:00,40.5,35.4,29.77,SSW,197,17.0,22.0,82,0.00,,,0.00,Wunderground v.1.15,2013-04-13 02:29:00,
2013-04-12 19:34:00,40.2,36.1,29.77,SSW,201,14.0,18.0,85,0.00,,,0.00,Wunderground v.1.15,2013-04-13 02:34:00,
2013-04-12 19:39:00,39.8,36.0,29.76,SSW,208,11.0,21.0,86,0.00,,,0.00,Wunderground v.1.15,2013-04-13 02:39:00,
2013-04-12 19:44:00,39.6,36.0,29.76,SW,223,11.0,19.0,87,0.00,,,0.00,Wunderground v.1.15,2013-04-13 02:44:00,
2013-04-12 19:49:00,39.4,36.4,29.76,SSW,205,13.0,19.0,89,0.00,,,0.01,Wunderground v.1.15,2013-04-13 02:49:00,
2013-04-12 19:54:00,39.4,36.7,29.75,SSW,198,10.0,16.0,90,0.00,,,0.01,Wunderground v.1.15,2013-04-13 02:54:00,
2013-04-12 19:59:00,39.2,36.5,29.75,SSW,212,13.0,16.0,90,0.00,,,0.01,Wunderground v.1.15,2013-04-13 02:59:00,
2013-04-12 20:04:00,39.2,36.8,29.75,SSW,205,9.0,16.0,91,0.00,,,0.01,Wunderground v.1.15,2013-04-13 03:04:00,
2013-04-12 20:09:00,39.2,36.8,29.75,SSW,205,10.0,16.0,91,0.00,,,0.01,Wunderground v.1.15,2013-04-13 03:09:00,
2013-04-12 20:14:00,39.1,37.0,29.75,South,189,9.0,15.0,92,0.00,,,0.01,Wunderground v.1.15,2013-04-13 03:14:00,
2013-04-12 20:19:00,39.2,37.1,29.74,SSW,194,13.0,15.0,92,0.00,,,0.02,Wunderground v.1.15,2013-04-13 03:19:00,
2013-04-12 20:24:00,39.1,37.0,29.74,SSW,202,11.0,17.0,92,0.00,,,0.02,Wunderground v.1.15,2013-04-13 03:24:00,
2013-04-12 20:29:00,39.1,37.0,29.74,SSW,202,13.0,17.0,92,0.00,,,0.02,Wunderground v.1.15,2013-04-13 03:29:00,
2013-04-12 20:34:00,39.1,37.2,29.74,SSW,202,13.0,13.0,93,0.00,,,0.02,Wunderground v.1.15,2013-04-13 03:34:00,
2013-04-12 20:39:00,39.1,37.2,29.73,SSW,209,11.0,15.0,93,0.00,,,0.02,Wunderground v.1.15,2013-04-13 03:39:00,
2013-04-12 20:44:00,39.1,37.2,29.73,SSW,207,10.0,15.0,93,0.00,,,0.03,Wunderground v.1.15,2013-04-13 03:44:00,
2013-04-12 20:49:00,39.0,37.1,29.73,South,188,9.0,15.0,93,0.08,,,0.04,Wunderground v.1.15,2013-04-13 03:49:00,
2013-04-12 20:54:00,38.9,37.0,29.73,South,191,13.0,14.0,93,0.08,,,0.04,Wunderground v.1.15,2013-04-13 03:54:00,
2013-04-12 20:59:00,38.9,37.0,29.73,SSW,202,15.0,15.0,93,0.08,,,0.05,Wunderground v.1.15,2013-04-13 03:59:00,
2013-04-12 21:00:00,38.9,37.0,29.73,SSW,199,10.0,15.0,93,0.08,,,0.05,Wunderground v.1.15,2013-04-13 04:00:00,
2013-04-12 21:02:00,38.9,37.0,29.73,South,190,12.0,15.0,93,0.10,,,0.06,Wunderground v.1.15,2013-04-13 04:02:00,
2013-04-12 21:07:00,38.8,36.9,29.73,SW,216,14.0,19.0,93,0.09,,,0.06,Wunderground v.1.15,2013-04-13 04:07:00,
2013-04-12 21:12:00,38.6,36.8,29.73,SSW,207,13.0,20.0,93,0.05,,,0.06,Wunderground v.1.15,2013-04-13 04:12:00,
2013-04-12 21:17:00,38.6,36.8,29.73,SSW,204,10.0,20.0,93,0.04,,,0.07,Wunderground v.1.15,2013-04-13 04:17:00,
2013-04-12 21:23:00,38.4,36.8,29.73,SSW,200,11.0,17.0,94,0.04,,,0.07,Wunderground v.1.15,2013-04-13 04:23:00,
2013-04-12 21:28:00,38.4,36.6,29.72,SSW,213,16.0,17.0,93,0.04,,,0.07,Wunderground v.1.15,2013-04-13 04:28:00,
2013-04-12 21:34:00,38.4,36.6,29.72,SW,215,14.0,15.0,93,0.04,,,0.08,Wunderground v.1.15,2013-04-13 04:34:00,
2013-04-12 21:39:00,38.4,36.6,29.72,SSW,203,8.0,15.0,93,0.04,,,0.08,Wunderground v.1.15,2013-04-13 04:39:00,
2013-04-12 21:44:00,38.3,36.5,29.72,SSW,205,12.0,18.0,93,0.04,,,0.08,Wunderground v.1.15,2013-04-13 04:44:00,
2013-04-12 21:49:00,38.3,36.2,29.71,SSW,199,10.0,20.0,92,0.00,,,0.08,Wunderground v.1.15,2013-04-13 04:49:00,
2013-04-12 21:54:00,38.3,36.5,29.71,SSW,202,10.0,15.0,93,0.00,,,0.08,Wunderground v.1.15,2013-04-13 04:54:00,
2013-04-12 21:59:00,38.3,36.5,29.71,South,188,10.0,16.0,93,0.00,,,0.08,Wunderground v.1.15,2013-04-13 04:59:00,
2013-04-12 22:04:00,38.3,36.5,29.70,South,184,7.0,14.0,93,0.00,,,0.08,Wunderground v.1.15,2013-04-13 05:04:00,
2013-04-12 22:09:00,38.3,36.5,29.70,South,186,16.0,17.0,93,0.00,,,0.08,Wunderground v.1.15,2013-04-13 05:09:00,
2013-04-12 22:14:00,38.3,36.5,29.70,SSW,203,8.0,16.0,93,0.00,,,0.08,Wunderground v.1.15,2013-04-13 05:14:00,
2013-04-12 22:19:00,38.3,36.5,29.70,South,186,10.0,16.0,93,0.00,,,0.08,Wunderground v.1.15,2013-04-13 05:19:00,
2013-04-12 22:24:00,38.3,36.5,29.69,South,186,9.0,14.0,93,0.00,,,0.08,Wunderground v.1.15,2013-04-13 05:24:00,
2013-04-12 22:29:00,38.3,36.7,29.69,South,188,10.0,14.0,94,0.00,,,0.08,Wunderground v.1.15,2013-04-13 05:29:00,
2013-04-12 22:35:00,38.2,36.6,29.69,South,172,7.0,12.0,94,0.00,,,0.08,Wunderground v.1.15,2013-04-13 05:35:00,
2013-04-12 22:40:00,38.2,36.6,29.69,South,180,6.0,7.0,94,0.00,,,0.08,Wunderground v.1.15,2013-04-13 05:40:00,
2013-04-12 22:45:00,38.3,36.7,29.69,South,188,6.0,10.0,94,0.00,,,0.08,Wunderground v.1.15,2013-04-13 05:45:00,
2013-04-12 22:50:00,38.3,37.0,29.68,South,185,8.0,9.0,95,0.00,,,0.08,Wunderground v.1.15,2013-04-13 05:50:00,
2013-04-12 22:55:00,38.4,37.1,29.68,South,190,9.0,13.0,95,0.00,,,0.08,Wunderground v.1.15,2013-04-13 05:55:00,
2013-04-12 23:00:00,38.6,37.3,29.68,South,187,10.0,11.0,95,0.00,,,0.08,Wunderground v.1.15,2013-04-13 06:00:00,
2013-04-12 23:05:00,38.6,37.3,29.67,South,175,9.0,11.0,95,0.00,,,0.08,Wunderground v.1.15,2013-04-13 06:05:00,
2013-04-12 23:10:00,38.6,37.3,29.67,South,182,10.0,11.0,95,0.00,,,0.08,Wunderground v.1.15,2013-04-13 06:10:00,
2013-04-12 23:15:00,38.7,37.4,29.67,SSW,196,10.0,14.0,95,0.00,,,0.08,Wunderground v.1.15,2013-04-13 06:15:00,
2013-04-12 23:20:00,38.9,37.6,29.66,SSW,200,10.0,10.0,95,0.00,,,0.08,Wunderground v.1.15,2013-04-13 06:20:00,
2013-04-12 23:25:00,39.2,37.9,29.66,SSW,201,10.0,15.0,95,0.00,,,0.08,Wunderground v.1.15,2013-04-13 06:25:00,
2013-04-12 23:30:00,39.4,38.1,29.66,SW,217,9.0,11.0,95,0.00,,,0.08,Wunderground v.1.15,2013-04-13 06:30:00,
2013-04-12 23:35:00,39.7,38.1,29.66,SSW,211,10.0,16.0,94,0.00,,,0.08,Wunderground v.1.15,2013-04-13 06:35:00,
2013-04-12 23:40:00,40.0,38.4,29.66,SSW,195,12.0,18.0,94,0.00,,,0.08,Wunderground v.1.15,2013-04-13 06:40:00,
2013-04-12 23:46:00,40.2,38.3,29.66,SW,223,11.0,18.0,93,0.00,,,0.08,Wunderground v.1.15,2013-04-13 06:46:00,
2013-04-12 23:52:00,40.3,38.2,29.66,SSW,201,10.0,16.0,92,0.00,,,0.08,Wunderground v.1.15,2013-04-13 06:52:00,
2013-04-12 23:57:00,40.2,38.1,29.66,SW,216,15.0,16.0,92,0.00,,,0.08,Wunderground v.1.15,2013-04-13 06:57:00,